Time;durP1;ratioP1;P1;durP2;ratioP2;P2;SDS_P1;SDS_P2;PMS_P1;PMS_P2;Temp;Humidity;BMP_temperature;BMP_pressure;BME280_temperature;BME280_humidity;BME280_pressure;Samples;Min_cycle;Max_cycle;Signal;HPM_P1;HPM_P2
2022/09/10 00:01:59;;;;;;;;;2.00;2.00;;;;;;;;4982660;28;45241;-71
2022/09/10 00:04:24;;;;;;;;;2.67;2.67;;;;;;;;4978849;27;45393;-71
2022/09/10 00:06:49;;;;;;;;;5.00;2.00;;;;;;;;4981841;28;45521;-71
2022/09/10 00:09:14;;;;;;;;;2.00;2.00;;;;;;;;4982411;27;45292;-71
2022/09/10 00:11:40;;;;;;;;;7.00;3.00;;;;;;;;4980331;27;46133;-71
2022/09/10 00:14:06;;;;;;;;;2.67;2.67;;;;;;;;4985727;28;45463;-71
2022/09/10 00:16:32;;;;;;;;;2.33;2.00;;;;;;;;4983185;27;45206;-71
2022/09/10 00:18:58;;;;;;;;;2.67;2.67;;;;;;;;4988250;27;45631;-71
2022/09/10 00:21:23;;;;;;;;;3.67;2.00;;;;;;;;4985592;27;46523;-71
2022/09/10 00:23:49;;;;;;;;;3.00;3.00;;;;;;;;4990679;28;45343;-71
2022/09/10 00:26:20;;;;;;;;;6.67;2.67;;;;;;;;4989896;27;45321;-71
2022/09/10 00:28:47;;;;;;;;;2.67;2.00;;;;;;;;4984588;27;46142;-71
2022/09/10 00:31:13;;;;;;;;;4.33;3.00;;;;;;;;4984717;27;45282;-71
2022/09/10 00:33:40;;;;;;;;;4.67;3.00;;;;;;;;4984870;27;45350;-71
2022/09/10 00:36:13;;;;;;;;;1.67;1.67;;;;;;;;5009213;27;45575;-71
2022/09/10 00:38:38;;;;;;;;;3.00;2.00;;;;;;;;4983288;27;45874;-71
2022/09/10 00:41:04;;;;;;;;;2.67;2.67;;;;;;;;4988403;28;45375;-71
2022/09/10 00:43:44;;;;;;;;;2.00;2.00;;;;;;;;4985903;27;45391;-71
2022/09/10 00:46:10;;;;;;;;;3.67;2.67;;;;;;;;4990962;27;45250;-71
2022/09/10 00:48:35;;;;;;;;;2.00;1.00;;;;;;;;4987853;27;45290;-71
2022/09/10 00:51:03;;;;;;;;;4.33;2.00;;;;;;;;4987806;27;46323;-71
2022/09/10 00:53:28;;;;;;;;;4.33;1.00;;;;;;;;4978967;27;45509;-70
2022/09/10 00:55:56;;;;;;;;;3.67;1.00;;;;;;;;4990030;27;45439;-71
2022/09/10 00:58:22;;;;;;;;;1.67;1.67;;;;;;;;4980110;28;45312;-70
2022/09/10 01:00:47;;;;;;;;;2.00;2.00;;;;;;;;4978772;27;45310;-70
2022/09/10 01:03:14;;;;;;;;;5.00;4.00;;;;;;;;4979879;27;45385;-70
2022/09/10 01:05:42;;;;;;;;;6.67;4.33;;;;;;;;4982827;27;45347;-70
2022/09/10 01:08:11;;;;;;;;;4.33;2.00;;;;;;;;4991094;27;45510;-70
2022/09/10 01:10:42;;;;;;;;;3.33;1.33;;;;;;;;4989628;27;45347;-70
2022/09/10 01:13:07;;;;;;;;;4.33;2.00;;;;;;;;4989282;28;45885;-70
2022/09/10 01:15:43;;;;;;;;;4.33;2.33;;;;;;;;4993835;27;45394;-70
2022/09/10 01:18:29;;;;;;;;;3.33;3.33;;;;;;;;4986226;28;45527;-70
2022/09/10 01:20:55;;;;;;;;;4.00;3.00;;;;;;;;4985983;27;45498;-70
2022/09/10 01:23:20;;;;;;;;;0.00;0.00;;;;;;;;4993537;27;45352;-70
2022/09/10 01:26:04;;;;;;;;;7.00;2.00;;;;;;;;4989536;27;45504;-71
2022/09/10 01:28:35;;;;;;;;;3.00;3.00;;;;;;;;4988694;28;45337;-70
2022/09/10 01:31:07;;;;;;;;;5.00;2.67;;;;;;;;4988776;27;45346;-70
2022/09/10 01:33:36;;;;;;;;;5.67;4.67;;;;;;;;4996026;28;45313;-70
2022/09/10 01:36:12;;;;;;;;;3.67;2.67;;;;;;;;4980736;27;45528;-70
2022/09/10 01:38:37;;;;;;;;;3.00;2.00;;;;;;;;4979392;28;45405;-70
2022/09/10 01:41:03;;;;;;;;;2.00;2.00;;;;;;;;4987105;27;45370;-71
2022/09/10 01:43:28;;;;;;;;;2.67;2.33;;;;;;;;4981786;28;45468;-71
2022/09/10 01:46:04;;;;;;;;;5.00;4.00;;;;;;;;4987217;28;45339;-70
2022/09/10 01:48:30;;;;;;;;;4.00;3.00;;;;;;;;4983794;28;45460;-70
2022/09/10 01:51:14;;;;;;;;;3.00;2.33;;;;;;;;4989930;28;45408;-70
2022/09/10 01:53:46;;;;;;;;;4.33;2.67;;;;;;;;4985889;27;45273;-70
2022/09/10 01:56:23;;;;;;;;;4.00;4.00;;;;;;;;4987253;28;45347;-71
2022/09/10 01:58:49;;;;;;;;;4.00;3.67;;;;;;;;4991984;28;45529;-70
2022/09/10 02:01:46;;;;;;;;;5.67;2.00;;;;;;;;4987594;27;46298;-70
2022/09/10 02:04:15;;;;;;;;;3.00;3.00;;;;;;;;5029368;28;45427;-70
2022/09/10 02:06:43;;;;;;;;;3.00;3.00;;;;;;;;4992757;27;47085;-70
2022/09/10 02:09:09;;;;;;;;;5.00;3.33;;;;;;;;4995908;28;46087;-71
2022/09/10 02:11:46;;;;;;;;;4.00;2.33;;;;;;;;4985846;27;46659;-70
2022/09/10 02:14:13;;;;;;;;;5.00;2.00;;;;;;;;4987837;27;45350;-71
2022/09/10 02:16:39;;;;;;;;;4.00;2.00;;;;;;;;4987412;27;45411;-70
2022/09/10 02:19:05;;;;;;;;;4.00;3.00;;;;;;;;4987820;27;45209;-71
2022/09/10 02:21:31;;;;;;;;;6.33;2.00;;;;;;;;4985127;28;46767;-71
2022/09/10 02:23:58;;;;;;;;;3.67;3.00;;;;;;;;4993309;28;45607;-70
2022/09/10 02:26:24;;;;;;;;;4.00;2.33;;;;;;;;4986662;27;45519;-70
2022/09/10 02:28:50;;;;;;;;;3.33;2.00;;;;;;;;4991288;28;45895;-70
2022/09/10 02:31:17;;;;;;;;;4.00;3.00;;;;;;;;4987042;28;45381;-70
2022/09/10 02:33:42;;;;;;;;;2.00;2.00;;;;;;;;4985282;27;45457;-70
2022/09/10 02:36:07;;;;;;;;;4.33;2.67;;;;;;;;5002169;27;45582;-71
2022/09/10 02:38:33;;;;;;;;;2.00;2.00;;;;;;;;4982255;28;45535;-70
2022/09/10 02:41:08;;;;;;;;;3.00;3.00;;;;;;;;5108877;27;45747;-71
2022/09/10 02:43:35;;;;;;;;;4.00;3.00;;;;;;;;5097097;27;45543;-71
2022/09/10 02:46:01;;;;;;;;;2.00;2.00;;;;;;;;5096312;27;45347;-71
2022/09/10 02:48:27;;;;;;;;;5.00;4.00;;;;;;;;5089110;27;46072;-71
2022/09/10 02:50:52;;;;;;;;;5.33;3.00;;;;;;;;5098252;27;45223;-71
2022/09/10 02:53:18;;;;;;;;;6.00;2.00;;;;;;;;5099818;27;45237;-71
2022/09/10 02:55:45;;;;;;;;;2.33;2.33;;;;;;;;5097785;27;45378;-71
2022/09/10 02:58:12;;;;;;;;;3.67;3.00;;;;;;;;5105500;27;45460;-72
2022/09/10 03:00:37;;;;;;;;;2.00;1.67;;;;;;;;5095822;27;46301;-71
2022/09/10 03:03:02;;;;;;;;;6.67;4.33;;;;;;;;5110776;27;45415;-72
2022/09/10 03:05:28;;;;;;;;;3.33;3.00;;;;;;;;5085214;27;45362;-70
2022/09/10 03:07:54;;;;;;;;;2.33;2.33;;;;;;;;5098805;27;45257;-70
2022/09/10 03:10:19;;;;;;;;;3.00;3.00;;;;;;;;5083247;27;46412;-69
2022/09/10 03:12:46;;;;;;;;;2.00;2.00;;;;;;;;5088429;27;45189;-69
2022/09/10 03:15:11;;;;;;;;;5.67;2.67;;;;;;;;5095554;27;45492;-69
2022/09/10 03:17:36;;;;;;;;;3.50;3.50;;;;;;;;5093337;27;45451;-69
2022/09/10 03:20:02;;;;;;;;;6.67;3.00;;;;;;;;5088329;27;45885;-69
2022/09/10 03:22:28;;;;;;;;;5.00;3.00;;;;;;;;5091140;27;45274;-69
2022/09/10 03:24:53;;;;;;;;;4.00;4.00;;;;;;;;5090143;27;45372;-69
2022/09/10 03:27:19;;;;;;;;;4.67;3.33;;;;;;;;5095299;27;46668;-70
2022/09/10 03:29:44;;;;;;;;;3.67;3.67;;;;;;;;5090128;27;46037;-69
2022/09/10 03:32:09;;;;;;;;;6.00;2.33;;;;;;;;5120803;27;45432;-70
2022/09/10 03:34:35;;;;;;;;;3.33;3.33;;;;;;;;5093523;27;45441;-72
2022/09/10 03:37:00;;;;;;;;;4.00;3.00;;;;;;;;5108226;27;45422;-71
2022/09/10 03:39:25;;;;;;;;;4.00;2.00;;;;;;;;5079352;27;46281;-71
2022/09/10 03:41:50;;;;;;;;;3.67;2.00;;;;;;;;5093968;27;45329;-71
2022/09/10 03:44:16;;;;;;;;;4.33;3.00;;;;;;;;5086054;27;45436;-71
2022/09/10 03:46:41;;;;;;;;;5.00;3.00;;;;;;;;5085747;27;45437;-71
2022/09/10 03:49:06;;;;;;;;;4.00;2.67;;;;;;;;5083707;27;45326;-71
2022/09/10 03:51:32;;;;;;;;;3.00;3.00;;;;;;;;5081575;27;45352;-71
2022/09/10 03:53:58;;;;;;;;;5.00;5.00;;;;;;;;5077554;27;45470;-71
2022/09/10 03:56:24;;;;;;;;;4.67;3.33;;;;;;;;5080600;27;45427;-72
2022/09/10 03:58:50;;;;;;;;;4.67;3.00;;;;;;;;5080146;27;46204;-69
2022/09/10 04:01:16;;;;;;;;;4.00;3.00;;;;;;;;5083177;27;45316;-72
2022/09/10 04:03:41;;;;;;;;;4.00;4.00;;;;;;;;5083537;27;45306;-71
2022/09/10 04:06:10;;;;;;;;;5.00;2.00;;;;;;;;5083443;27;45222;-71
2022/09/10 04:08:36;;;;;;;;;4.33;4.00;;;;;;;;5088947;27;45942;-69
2022/09/10 04:11:02;;;;;;;;;5.00;2.00;;;;;;;;5086296;27;45515;-69
2022/09/10 04:13:27;;;;;;;;;4.50;3.00;;;;;;;;5072691;28;45354;-70
2022/09/10 04:15:54;;;;;;;;;3.00;3.00;;;;;;;;5091640;27;45500;-69
2022/09/10 04:18:19;;;;;;;;;2.00;2.00;;;;;;;;5077087;27;45278;-69
2022/09/10 04:20:46;;;;;;;;;6.00;3.33;;;;;;;;5072638;27;45467;-70
2022/09/10 04:23:11;;;;;;;;;5.00;4.00;;;;;;;;5075522;27;45450;-69
2022/09/10 04:25:37;;;;;;;;;3.67;2.00;;;;;;;;5077020;27;45612;-70
2022/09/10 04:28:02;;;;;;;;;8.00;2.00;;;;;;;;5074676;28;46300;-70
2022/09/10 04:30:27;;;;;;;;;3.67;2.00;;;;;;;;5079336;27;45295;-70
2022/09/10 04:32:53;;;;;;;;;8.00;4.00;;;;;;;;5087526;27;45609;-70
2022/09/10 04:35:19;;;;;;;;;3.00;3.00;;;;;;;;5079733;27;46097;-70
2022/09/10 04:37:44;;;;;;;;;4.67;3.33;;;;;;;;5087113;27;45369;-70
2022/09/10 04:40:09;;;;;;;;;2.00;2.00;;;;;;;;5070749;27;45325;-71
2022/09/10 04:42:35;;;;;;;;;1.33;1.33;;;;;;;;5083332;27;45943;-71
2022/09/10 04:45:00;;;;;;;;;4.00;4.00;;;;;;;;5064190;27;45348;-70
2022/09/10 04:47:25;;;;;;;;;3.33;2.00;;;;;;;;5073463;27;45990;-70
2022/09/10 04:49:50;;;;;;;;;3.67;3.67;;;;;;;;5067087;27;45331;-70
2022/09/10 04:52:16;;;;;;;;;2.00;2.00;;;;;;;;5093208;27;45398;-70
2022/09/10 04:54:41;;;;;;;;;3.00;1.00;;;;;;;;5070935;27;45241;-71
2022/09/10 04:57:06;;;;;;;;;3.00;3.00;;;;;;;;5078382;27;45303;-71
2022/09/10 04:59:32;;;;;;;;;2.33;2.00;;;;;;;;5080735;27;45375;-71
2022/09/10 05:01:57;;;;;;;;;3.00;3.00;;;;;;;;5078635;27;45240;-71
2022/09/10 05:04:23;;;;;;;;;4.33;3.00;;;;;;;;5074445;28;45800;-70
2022/09/10 05:06:49;;;;;;;;;4.33;2.67;;;;;;;;5078724;27;45437;-70
2022/09/10 05:09:14;;;;;;;;;4.67;3.00;;;;;;;;5084901;27;45260;-71
2022/09/10 05:11:39;;;;;;;;;3.00;2.00;;;;;;;;5096405;27;45480;-71
2022/09/10 05:14:06;;;;;;;;;6.33;2.67;;;;;;;;5081905;27;45388;-71
2022/09/10 05:16:31;;;;;;;;;6.00;2.00;;;;;;;;5080113;27;45266;-70
2022/09/10 05:18:58;;;;;;;;;1.00;1.00;;;;;;;;5078328;27;45365;-70
2022/09/10 05:21:23;;;;;;;;;3.00;2.33;;;;;;;;5092834;27;45219;-70
2022/09/10 05:23:48;;;;;;;;;7.67;5.00;;;;;;;;5099381;27;46097;-70
2022/09/10 05:26:13;;;;;;;;;5.00;4.00;;;;;;;;5082656;27;45434;-70
2022/09/10 05:28:38;;;;;;;;;7.33;3.33;;;;;;;;5094758;27;45436;-70
2022/09/10 05:31:05;;;;;;;;;3.00;3.00;;;;;;;;5100447;27;45350;-70
2022/09/10 05:33:31;;;;;;;;;4.67;3.00;;;;;;;;5065397;28;45442;-70
2022/09/10 05:35:56;;;;;;;;;5.00;3.00;;;;;;;;5079145;27;45879;-71
2022/09/10 05:38:23;;;;;;;;;3.33;3.33;;;;;;;;5067953;27;45280;-70
2022/09/10 05:40:49;;;;;;;;;2.67;2.67;;;;;;;;5092195;27;45362;-71
2022/09/10 05:43:14;;;;;;;;;4.67;4.00;;;;;;;;5072911;27;45437;-71
2022/09/10 05:45:40;;;;;;;;;3.00;2.00;;;;;;;;5073281;27;45434;-71
2022/09/10 05:48:05;;;;;;;;;2.00;2.00;;;;;;;;5092518;27;45325;-71
2022/09/10 05:50:30;;;;;;;;;4.00;2.00;;;;;;;;5074840;27;45176;-71
2022/09/10 05:52:55;;;;;;;;;4.00;3.67;;;;;;;;5086658;27;45477;-71
2022/09/10 05:55:21;;;;;;;;;4.00;3.00;;;;;;;;5077264;27;45482;-71
2022/09/10 05:57:46;;;;;;;;;10.33;3.67;;;;;;;;5087986;27;45212;-71
2022/09/10 06:00:11;;;;;;;;;3.67;2.67;;;;;;;;5081578;27;45406;-70
2022/09/10 06:02:37;;;;;;;;;6.00;4.67;;;;;;;;5090285;27;45758;-71
2022/09/10 06:05:02;;;;;;;;;2.33;2.33;;;;;;;;5072500;27;45756;-71
2022/09/10 06:07:28;;;;;;;;;3.00;3.00;;;;;;;;5080848;27;45301;-71
2022/09/10 06:09:54;;;;;;;;;3.33;3.33;;;;;;;;5068361;27;45363;-71
2022/09/10 06:12:19;;;;;;;;;7.67;3.00;;;;;;;;5082251;27;45295;-71
2022/09/10 06:14:44;;;;;;;;;5.33;3.67;;;;;;;;5077968;28;45359;-71
2022/09/10 06:17:10;;;;;;;;;6.67;3.67;;;;;;;;5081854;27;45433;-71
2022/09/10 06:19:35;;;;;;;;;3.00;2.00;;;;;;;;5067137;28;45295;-71
2022/09/10 06:22:00;;;;;;;;;4.33;2.67;;;;;;;;5072975;27;45576;-71
2022/09/10 06:24:25;;;;;;;;;5.00;3.00;;;;;;;;5070981;27;46595;-72
2022/09/10 06:26:50;;;;;;;;;3.00;3.00;;;;;;;;5096940;27;45416;-72
2022/09/10 06:29:18;;;;;;;;;4.33;3.00;;;;;;;;5078085;27;45248;-69
2022/09/10 06:31:43;;;;;;;;;2.00;2.00;;;;;;;;5080656;27;45387;-73
2022/09/10 06:34:08;;;;;;;;;4.67;3.67;;;;;;;;5074285;28;45434;-71
2022/09/10 06:36:34;;;;;;;;;2.33;1.33;;;;;;;;5082033;27;45260;-71
2022/09/10 06:39:00;;;;;;;;;2.67;1.33;;;;;;;;5070784;27;45244;-71
2022/09/10 06:41:26;;;;;;;;;4.33;2.00;;;;;;;;5072077;27;45933;-70
2022/09/10 06:43:51;;;;;;;;;6.00;3.00;;;;;;;;5089221;27;47061;-71
2022/09/10 06:46:17;;;;;;;;;2.00;2.00;;;;;;;;5075995;27;45374;-71
2022/09/10 06:48:43;;;;;;;;;4.00;3.00;;;;;;;;5078806;27;45339;-70
2022/09/10 06:51:09;;;;;;;;;3.00;3.00;;;;;;;;5080027;27;45292;-70
2022/09/10 06:53:35;;;;;;;;;2.33;2.33;;;;;;;;5074513;27;46952;-70
2022/09/10 06:56:01;;;;;;;;;1.33;1.33;;;;;;;;5081587;27;45289;-71
2022/09/10 06:58:29;;;;;;;;;2.67;2.33;;;;;;;;5079469;27;45449;-70
2022/09/10 07:00:54;;;;;;;;;2.00;2.00;;;;;;;;5070417;27;45368;-70
2022/09/10 07:03:20;;;;;;;;;4.33;3.00;;;;;;;;5069739;28;47034;-69
2022/09/10 07:05:46;;;;;;;;;3.00;3.00;;;;;;;;5077879;27;45255;-69
2022/09/10 07:08:12;;;;;;;;;3.00;3.00;;;;;;;;5084813;27;45177;-70
2022/09/10 07:10:38;;;;;;;;;4.00;2.67;;;;;;;;5067897;27;45256;-71
2022/09/10 07:13:04;;;;;;;;;7.00;3.00;;;;;;;;5084772;27;47136;-70
2022/09/10 07:15:29;;;;;;;;;5.33;2.00;;;;;;;;5066777;27;45321;-70
2022/09/10 07:17:54;;;;;;;;;4.33;2.67;;;;;;;;5086164;27;45454;-71
2022/09/10 07:20:23;;;;;;;;;3.33;1.67;;;;;;;;5070268;27;45495;-70
2022/09/10 07:22:54;;;;;;;;;4.33;4.33;;;;;;;;5070428;28;46991;-70
2022/09/10 07:25:19;;;;;;;;;4.33;2.00;;;;;;;;5070242;27;45519;-68
2022/09/10 07:27:45;;;;;;;;;4.00;4.00;;;;;;;;5080043;27;45303;-68
2022/09/10 07:30:10;;;;;;;;;4.00;3.00;;;;;;;;5076168;27;46031;-68
2022/09/10 07:32:36;;;;;;;;;2.00;2.00;;;;;;;;5080084;27;45887;-68
2022/09/10 07:35:01;;;;;;;;;3.33;3.00;;;;;;;;5068338;27;45398;-68
2022/09/10 07:37:26;;;;;;;;;5.33;4.00;;;;;;;;5090466;27;46299;-68
2022/09/10 07:39:51;;;;;;;;;5.00;4.00;;;;;;;;5080955;28;45338;-67
2022/09/10 07:42:17;;;;;;;;;3.00;3.00;;;;;;;;5080926;27;47173;-68
2022/09/10 07:44:42;;;;;;;;;7.00;6.00;;;;;;;;5078261;27;45366;-70
2022/09/10 07:47:07;;;;;;;;;5.00;5.00;;;;;;;;5080074;27;45647;-66
2022/09/10 07:49:33;;;;;;;;;3.00;3.00;;;;;;;;5064641;27;45328;-70
2022/09/10 07:51:58;;;;;;;;;2.67;2.00;;;;;;;;5092551;27;46932;-67
2022/09/10 07:54:23;;;;;;;;;2.00;2.00;;;;;;;;5074449;27;45475;-69
2022/09/10 07:56:49;;;;;;;;;3.33;3.33;;;;;;;;5079820;27;45407;-67
2022/09/10 07:59:14;;;;;;;;;4.00;2.00;;;;;;;;5077439;27;45901;-70
2022/09/10 08:01:39;;;;;;;;;2.00;2.00;;;;;;;;5073335;27;45424;-70
2022/09/10 08:04:06;;;;;;;;;2.33;2.33;;;;;;;;5095332;27;45934;-67
2022/09/10 08:06:31;;;;;;;;;3.00;2.00;;;;;;;;5083175;27;48274;-67
2022/09/10 08:08:56;;;;;;;;;3.67;2.33;;;;;;;;5079316;27;45617;-67
2022/09/10 08:11:22;;;;;;;;;3.00;3.00;;;;;;;;5077580;27;46051;-68
2022/09/10 08:13:48;;;;;;;;;0.67;0.67;;;;;;;;5076792;27;45352;-67
2022/09/10 08:16:20;;;;;;;;;4.00;2.67;;;;;;;;5083188;27;45586;-68
2022/09/10 08:18:50;;;;;;;;;2.67;1.67;;;;;;;;5081016;27;45180;-70
2022/09/10 08:21:16;;;;;;;;;4.00;3.00;;;;;;;;5082449;27;46541;-68
2022/09/10 08:23:42;;;;;;;;;2.67;2.00;;;;;;;;5068227;28;45375;-68
2022/09/10 08:26:08;;;;;;;;;3.00;3.00;;;;;;;;5093818;27;45330;-68
2022/09/10 08:28:36;;;;;;;;;2.67;2.67;;;;;;;;5070087;27;45303;-68
2022/09/10 08:31:03;;;;;;;;;3.67;2.33;;;;;;;;5078051;27;46112;-68
2022/09/10 08:33:30;;;;;;;;;4.00;4.00;;;;;;;;5076164;27;45268;-70
2022/09/10 08:35:56;;;;;;;;;3.00;3.00;;;;;;;;5080758;27;45449;-68
2022/09/10 08:38:23;;;;;;;;;2.00;2.00;;;;;;;;5089145;27;45425;-67
2022/09/10 08:40:48;;;;;;;;;2.33;2.33;;;;;;;;5081386;27;46293;-68
2022/09/10 08:43:14;;;;;;;;;3.33;2.00;;;;;;;;5073570;27;45291;-68
2022/09/10 08:45:49;;;;;;;;;3.00;3.00;;;;;;;;5070772;27;45313;-68
2022/09/10 08:48:19;;;;;;;;;2.33;2.00;;;;;;;;5071380;28;45442;-68
2022/09/10 08:50:45;;;;;;;;;4.00;3.00;;;;;;;;5073841;27;45412;-69
2022/09/10 08:53:18;;;;;;;;;2.33;2.33;;;;;;;;5080779;27;45957;-70
2022/09/10 08:55:44;;;;;;;;;2.67;2.33;;;;;;;;5075178;27;45328;-71
2022/09/10 08:58:17;;;;;;;;;4.00;4.00;;;;;;;;5089854;27;45727;-69
2022/09/10 09:00:44;;;;;;;;;3.67;3.33;;;;;;;;5075992;27;45398;-69
2022/09/10 09:03:15;;;;;;;;;3.00;2.33;;;;;;;;5079530;27;45320;-69
2022/09/10 09:05:45;;;;;;;;;2.00;2.00;;;;;;;;5078541;27;45170;-69
2022/09/10 09:08:16;;;;;;;;;2.00;2.00;;;;;;;;5084427;27;46020;-70
2022/09/10 09:10:48;;;;;;;;;3.00;1.67;;;;;;;;5069900;27;46351;-68
2022/09/10 09:13:21;;;;;;;;;2.00;2.00;;;;;;;;5086193;27;45411;-69
2022/09/10 09:15:52;;;;;;;;;2.00;2.00;;;;;;;;5082996;27;45288;-69
2022/09/10 09:18:24;;;;;;;;;2.00;2.00;;;;;;;;5074606;27;45364;-68
2022/09/10 09:20:56;;;;;;;;;2.00;2.00;;;;;;;;5072846;27;46002;-68
2022/09/10 09:23:25;;;;;;;;;4.00;1.67;;;;;;;;5074886;27;45423;-69
2022/09/10 09:25:58;;;;;;;;;1.33;1.33;;;;;;;;5075160;27;45557;-69
2022/09/10 09:28:42;;;;;;;;;2.00;2.00;;;;;;;;5075777;27;45366;-69
2022/09/10 09:31:11;;;;;;;;;2.67;2.67;;;;;;;;5095742;27;45287;-69
2022/09/10 09:33:37;;;;;;;;;1.67;1.67;;;;;;;;5080078;27;45343;-69
2022/09/10 09:36:03;;;;;;;;;3.00;3.00;;;;;;;;5081245;27;45448;-69
2022/09/10 09:38:36;;;;;;;;;3.00;1.33;;;;;;;;5088946;27;45207;-71
2022/09/10 09:41:06;;;;;;;;;2.67;2.67;;;;;;;;5070054;27;45497;-71
2022/09/10 09:43:32;;;;;;;;;3.33;3.33;;;;;;;;5071318;27;45294;-70
2022/09/10 09:45:57;;;;;;;;;2.00;2.00;;;;;;;;5072654;27;45516;-69
2022/09/10 09:48:23;;;;;;;;;4.00;4.00;;;;;;;;5075271;27;45445;-70
2022/09/10 09:51:00;;;;;;;;;2.33;2.33;;;;;;;;5074203;27;46320;-69
2022/09/10 09:53:27;;;;;;;;;3.67;3.67;;;;;;;;5081766;27;45410;-69
2022/09/10 09:55:56;;;;;;;;;5.00;4.00;;;;;;;;5078582;27;45474;-69
2022/09/10 09:58:22;;;;;;;;;4.67;3.33;;;;;;;;5074016;27;45316;-69
2022/09/10 10:00:51;;;;;;;;;2.00;2.00;;;;;;;;5075849;27;45367;-71
2022/09/10 10:03:23;;;;;;;;;4.67;4.67;;;;;;;;5077197;27;45429;-69
2022/09/10 10:05:48;;;;;;;;;2.33;2.00;;;;;;;;5069369;27;45457;-69
2022/09/10 10:08:29;;;;;;;;;7.67;4.67;;;;;;;;5079967;27;45482;-71
2022/09/10 10:10:55;;;;;;;;;4.00;3.00;;;;;;;;5106112;27;46854;-70
2022/09/10 10:13:21;;;;;;;;;4.33;4.00;;;;;;;;5078637;27;45401;-69
2022/09/10 10:15:47;;;;;;;;;3.00;3.00;;;;;;;;5070925;27;45366;-70
2022/09/10 10:18:21;;;;;;;;;3.00;3.00;;;;;;;;5079195;27;45334;-69
2022/09/10 10:20:48;;;;;;;;;7.33;4.00;;;;;;;;5073410;27;45443;-69
2022/09/10 10:23:35;;;;;;;;;5.33;4.00;;;;;;;;5083904;27;45344;-70
2022/09/10 10:26:14;;;;;;;;;5.00;3.67;;;;;;;;5075942;27;45289;-68
2022/09/10 10:28:43;;;;;;;;;7.33;5.67;;;;;;;;5069197;27;45320;-68
2022/09/10 10:31:09;;;;;;;;;5.00;5.00;;;;;;;;5076272;27;45447;-68
2022/09/10 10:33:34;;;;;;;;;4.00;3.00;;;;;;;;5085700;27;45268;-71
2022/09/10 10:36:08;;;;;;;;;4.33;4.00;;;;;;;;5081007;27;45363;-69
2022/09/10 10:38:43;;;;;;;;;4.00;4.00;;;;;;;;5063646;27;45537;-68
2022/09/10 10:41:26;;;;;;;;;3.67;3.67;;;;;;;;5067000;27;46396;-69
2022/09/10 10:43:54;;;;;;;;;4.00;3.00;;;;;;;;5065261;27;45354;-70
2022/09/10 10:46:21;;;;;;;;;4.00;4.00;;;;;;;;5073358;27;45459;-70
2022/09/10 10:48:46;;;;;;;;;5.67;4.67;;;;;;;;5062869;27;45510;-70
2022/09/10 10:51:17;;;;;;;;;4.67;4.67;;;;;;;;5069507;27;45533;-70
2022/09/10 10:53:57;;;;;;;;;5.33;4.00;;;;;;;;5083978;27;45626;-70
2022/09/10 10:56:22;;;;;;;;;4.00;3.67;;;;;;;;5051930;27;45264;-70
2022/09/10 10:58:50;;;;;;;;;5.67;3.67;;;;;;;;5054261;28;46811;-71
2022/09/10 11:01:21;;;;;;;;;5.67;3.00;;;;;;;;5078062;27;45392;-69
2022/09/10 11:03:50;;;;;;;;;4.67;3.67;;;;;;;;5069080;28;45439;-69
2022/09/10 11:06:19;;;;;;;;;4.67;4.00;;;;;;;;5058863;27;45468;-71
2022/09/10 11:08:44;;;;;;;;;6.00;5.00;;;;;;;;5073104;27;45360;-70
2022/09/10 11:11:10;;;;;;;;;4.33;3.00;;;;;;;;5078701;27;47219;-71
2022/09/10 11:13:41;;;;;;;;;4.67;3.00;;;;;;;;5060325;28;45243;-69
2022/09/10 11:16:15;;;;;;;;;5.00;4.00;;;;;;;;5093573;27;45458;-71
2022/09/10 11:18:57;;;;;;;;;4.00;3.67;;;;;;;;5078740;28;45356;-69
2022/09/10 11:21:33;;;;;;;;;3.67;3.67;;;;;;;;5071351;28;45538;-69
2022/09/10 11:24:01;;;;;;;;;5.00;4.00;;;;;;;;5059986;28;46168;-70
2022/09/10 11:26:33;;;;;;;;;4.00;4.00;;;;;;;;5070618;28;45699;-70
2022/09/10 11:29:17;;;;;;;;;6.00;3.00;;;;;;;;5077059;28;46035;-70
2022/09/10 11:31:45;;;;;;;;;6.00;3.67;;;;;;;;5076702;28;45323;-69
2022/09/10 11:34:27;;;;;;;;;4.00;4.00;;;;;;;;5080138;28;45348;-69
2022/09/10 11:36:57;;;;;;;;;5.00;4.67;;;;;;;;5068109;28;45398;-70
2022/09/10 11:39:32;;;;;;;;;4.00;4.00;;;;;;;;5071053;28;45320;-70
2022/09/10 11:42:00;;;;;;;;;4.00;4.00;;;;;;;;5075063;27;45561;-70
2022/09/10 11:44:51;;;;;;;;;4.67;3.67;;;;;;;;5073174;28;45398;-70
2022/09/10 11:47:38;;;;;;;;;4.33;4.00;;;;;;;;5069603;28;45295;-70
2022/09/10 11:50:09;;;;;;;;;3.33;3.00;;;;;;;;5074356;28;45271;-70
2022/09/10 11:52:35;;;;;;;;;3.00;3.00;;;;;;;;5071042;28;47127;-70
2022/09/10 11:55:02;;;;;;;;;4.33;4.33;;;;;;;;5077692;28;45367;-71
2022/09/10 11:57:47;;;;;;;;;5.00;5.00;;;;;;;;5069226;28;45504;-70
2022/09/10 12:00:19;;;;;;;;;6.00;4.67;;;;;;;;5062649;28;45368;-72
2022/09/10 12:02:44;;;;;;;;;5.00;5.00;;;;;;;;5072457;28;45240;-71
2022/09/10 12:05:15;;;;;;;;;5.67;3.00;;;;;;;;5069401;28;45257;-71
2022/09/10 12:07:46;;;;;;;;;6.67;5.00;;;;;;;;5070074;28;45370;-70
2022/09/10 12:10:26;;;;;;;;;6.00;5.00;;;;;;;;5065081;27;46364;-69
2022/09/10 12:12:52;;;;;;;;;4.00;4.00;;;;;;;;5062845;28;45400;-69
2022/09/10 12:15:19;;;;;;;;;6.67;5.00;;;;;;;;5083041;27;45432;-69
2022/09/10 12:17:47;;;;;;;;;6.00;5.00;;;;;;;;5067082;28;45421;-70
2022/09/10 12:20:16;;;;;;;;;5.00;5.00;;;;;;;;5076771;28;45493;-70
2022/09/10 12:22:42;;;;;;;;;6.67;5.00;;;;;;;;5067436;28;45318;-69
2022/09/10 12:25:23;;;;;;;;;4.00;4.00;;;;;;;;5063275;28;45285;-69
2022/09/10 12:27:49;;;;;;;;;4.67;4.67;;;;;;;;5066148;28;45330;-70
2022/09/10 12:30:34;;;;;;;;;5.00;3.50;;;;;;;;5062725;27;45387;-70
2022/09/10 12:33:12;;;;;;;;;3.67;3.67;;;;;;;;5069395;27;47292;-69
2022/09/10 12:35:42;;;;;;;;;4.50;3.50;;;;;;;;5072280;27;45470;-70
2022/09/10 12:38:26;;;;;;;;;3.00;3.00;;;;;;;;5096535;27;45421;-69
2022/09/10 12:40:52;;;;;;;;;2.67;2.67;;;;;;;;5079025;27;45489;-70
2022/09/10 12:43:36;;;;;;;;;4.00;1.75;;;;;;;;5089334;27;45646;-69
2022/09/10 12:46:13;;;;;;;;;1.75;1.75;;;;;;;;5068875;27;45524;-68
2022/09/10 12:49:04;;;;;;;;;2.67;2.67;;;;;;;;5063883;27;45406;-69
2022/09/10 12:51:48;;;;;;;;;6.00;3.25;;;;;;;;5072208;27;45367;-69
2022/09/10 12:54:32;;;;;;;;;3.00;2.00;;;;;;;;5077919;28;45422;-68
2022/09/10 12:57:00;;;;;;;;;3.00;1.00;;;;;;;;5076609;27;45373;-68
2022/09/10 12:59:41;;;;;;;;;3.00;2.00;;;;;;;;5069033;28;45406;-68
2022/09/10 13:02:27;;;;;;;;;1.00;1.00;;;;;;;;5095358;27;45825;-68
2022/09/10 13:04:56;;;;;;;;;1.00;1.00;;;;;;;;5094267;27;45480;-69
2022/09/10 13:07:24;;;;;;;;;1.75;1.75;;;;;;;;5107246;27;45701;-70
2022/09/10 13:10:14;;;;;;;;;3.50;1.00;;;;;;;;5067278;28;45384;-70
2022/09/10 13:12:40;;;;;;;;;1.00;1.00;;;;;;;;5079677;27;45388;-69
2022/09/10 13:15:06;;;;;;;;;3.25;3.25;;;;;;;;5071204;27;45393;-69
2022/09/10 13:17:34;;;;;;;;;4.25;2.75;;;;;;;;5087441;27;45509;-70
2022/09/10 13:20:11;;;;;;;;;2.25;1.75;;;;;;;;5072440;28;45400;-69
2022/09/10 13:22:55;;;;;;;;;1.25;1.25;;;;;;;;5083930;27;45257;-69
2022/09/10 13:25:35;;;;;;;;;4.50;1.25;;;;;;;;5082520;27;48114;-69
2022/09/10 13:28:19;;;;;;;;;3.00;2.00;;;;;;;;5068106;28;45423;-70
2022/09/10 13:30:45;;;;;;;;;2.00;2.00;;;;;;;;5069855;27;45549;-69
2022/09/10 13:33:13;;;;;;;;;4.00;4.00;;;;;;;;5072944;27;45352;-69
2022/09/10 13:35:44;;;;;;;;;2.00;2.00;;;;;;;;5089908;27;47065;-69
2022/09/10 13:38:19;;;;;;;;;4.00;4.00;;;;;;;;5075368;27;45437;-69
2022/09/10 13:40:53;;;;;;;;;4.25;3.75;;;;;;;;5068916;27;45553;-73
2022/09/10 13:43:24;;;;;;;;;2.75;2.75;;;;;;;;5074094;27;45347;-73
2022/09/10 13:45:55;;;;;;;;;5.50;2.75;;;;;;;;5073711;27;45311;-73
2022/09/10 13:48:23;;;;;;;;;1.00;1.00;;;;;;;;5073839;27;45460;-71
2022/09/10 13:51:07;;;;;;;;;3.67;2.67;;;;;;;;5075678;27;45388;-71
2022/09/10 13:53:33;;;;;;;;;5.00;2.33;;;;;;;;5073594;27;45399;-71
2022/09/10 13:56:12;;;;;;;;;5.00;3.67;;;;;;;;5093663;27;47067;-71
2022/09/10 13:58:41;;;;;;;;;3.67;2.00;;;;;;;;5078102;27;45315;-72
2022/09/10 14:01:06;;;;;;;;;2.67;2.67;;;;;;;;5082316;27;45340;-71
2022/09/10 14:03:38;;;;;;;;;3.00;1.67;;;;;;;;5083537;27;45868;-71
2022/09/10 14:06:20;;;;;;;;;3.33;3.33;;;;;;;;5083602;27;46690;-71
2022/09/10 14:08:57;;;;;;;;;5.00;4.00;;;;;;;;5079246;27;45475;-71
2022/09/10 14:11:24;;;;;;;;;5.00;3.00;;;;;;;;5083119;27;45591;-71
2022/09/10 14:13:54;;;;;;;;;2.67;2.67;;;;;;;;5072975;28;45270;-71
2022/09/10 14:16:23;;;;;;;;;2.33;2.33;;;;;;;;5090312;27;47201;-71
2022/09/10 14:18:52;;;;;;;;;2.33;2.00;;;;;;;;5096508;27;45346;-71
2022/09/10 14:21:25;;;;;;;;;3.67;1.00;;;;;;;;5096805;27;45395;-71
2022/09/10 14:23:51;;;;;;;;;4.33;2.33;;;;;;;;5083371;27;45339;-71
2022/09/10 14:26:22;;;;;;;;;2.33;2.33;;;;;;;;5082385;27;45376;-72
2022/09/10 14:28:57;;;;;;;;;1.33;1.33;;;;;;;;5064679;28;45291;-71
2022/09/10 14:31:25;;;;;;;;;2.33;2.33;;;;;;;;5075818;27;45406;-71
2022/09/10 14:33:54;;;;;;;;;2.00;2.00;;;;;;;;5072748;28;45449;-71
2022/09/10 14:36:26;;;;;;;;;1.67;1.67;;;;;;;;5079091;27;45355;-71
2022/09/10 14:39:10;;;;;;;;;3.00;2.00;;;;;;;;5066115;28;45302;-72
2022/09/10 14:41:35;;;;;;;;;5.00;3.67;;;;;;;;5074488;27;45376;-71
2022/09/10 14:44:26;;;;;;;;;4.33;3.00;;;;;;;;5073485;28;45278;-71
2022/09/10 14:46:56;;;;;;;;;1.00;1.00;;;;;;;;5081144;27;46212;-71
2022/09/10 14:49:27;;;;;;;;;2.33;2.33;;;;;;;;5099261;27;45347;-71
2022/09/10 14:51:53;;;;;;;;;2.33;2.33;;;;;;;;5082796;27;45361;-71
2022/09/10 14:54:18;;;;;;;;;1.67;1.67;;;;;;;;5087562;27;45645;-71